Time;durP1;ratioP1;P1;durP2;ratioP2;P2;SDS_P1;SDS_P2;PMS_P1;PMS_P2;Temp;Humidity;BMP_temperature;BMP_pressure;BME280_temperature;BME280_humidity;BME280_pressure;Samples;Min_cycle;Max_cycle;Signal;HPM_P1;HPM_P2
2022/07/25 00:01:11;;;;;;;5.53;4.30;;;;;;;;;;5004604;28;20029;-74
2022/07/25 00:03:36;;;;;;;7.07;4.28;;;;;;;;;;5007450;28;20030;-74
2022/07/25 00:06:01;;;;;;;7.05;4.70;;;;;;;;;;5009512;28;20581;-74
2022/07/25 00:08:27;;;;;;;5.38;3.95;;;;;;;;;;5004866;28;20113;-75
2022/07/25 00:10:52;;;;;;;6.25;3.95;;;;;;;;;;5002567;28;20026;-74
2022/07/25 00:13:17;;;;;;;5.80;4.40;;;;;;;;;;5005924;28;20026;-73
2022/07/25 00:15:43;;;;;;;8.75;4.43;;;;;;;;;;5004139;28;20038;-74
2022/07/25 00:18:08;;;;;;;7.45;4.80;;;;;;;;;;5006115;28;20018;-75
2022/07/25 00:20:34;;;;;;;6.60;4.28;;;;;;;;;;5002977;28;20022;-74
2022/07/25 00:22:59;;;;;;;6.28;4.88;;;;;;;;;;5003866;28;20093;-74
2022/07/25 00:25:24;;;;;;;7.88;4.53;;;;;;;;;;5006642;28;20030;-73
2022/07/25 00:27:50;;;;;;;6.07;4.10;;;;;;;;;;5005325;28;20065;-74
2022/07/25 00:30:15;;;;;;;7.72;4.72;;;;;;;;;;5009674;28;20030;-74
2022/07/25 00:32:41;;;;;;;6.88;4.60;;;;;;;;;;5013051;28;20409;-72
2022/07/25 00:35:07;;;;;;;6.78;4.55;;;;;;;;;;5002886;28;20072;-74
2022/07/25 00:37:32;;;;;;;6.57;4.82;;;;;;;;;;5009605;28;20021;-73
2022/07/25 00:39:57;;;;;;;6.15;4.75;;;;;;;;;;5005101;28;20548;-75
2022/07/25 00:42:23;;;;;;;5.70;4.53;;;;;;;;;;5007076;28;20026;-73
2022/07/25 00:44:49;;;;;;;7.97;4.53;;;;;;;;;;5006008;28;20088;-74
2022/07/25 00:47:14;;;;;;;7.40;5.13;;;;;;;;;;5008560;28;20029;-74
2022/07/25 00:49:40;;;;;;;6.75;4.97;;;;;;;;;;5004139;28;20029;-74
2022/07/25 00:52:05;;;;;;;7.30;5.32;;;;;;;;;;5005244;28;20026;-74
2022/07/25 00:54:31;;;;;;;6.43;4.93;;;;;;;;;;5004549;28;20041;-73
2022/07/25 00:56:57;;;;;;;7.57;5.53;;;;;;;;;;5007818;28;20026;-74
2022/07/25 00:59:22;;;;;;;6.78;5.20;;;;;;;;;;5009578;28;20072;-74
2022/07/25 01:01:47;;;;;;;7.40;5.78;;;;;;;;;;5007728;28;20034;-74
2022/07/25 01:04:15;;;;;;;7.38;5.30;;;;;;;;;;5008217;28;20088;-74
2022/07/25 01:06:40;;;;;;;6.43;5.13;;;;;;;;;;5007085;28;20048;-73
2022/07/25 01:09:06;;;;;;;6.93;5.60;;;;;;;;;;5006270;28;20478;-74
2022/07/25 01:11:32;;;;;;;5.82;4.80;;;;;;;;;;5007226;28;20022;-74
2022/07/25 01:13:58;;;;;;;7.22;5.15;;;;;;;;;;5022177;28;20029;-73
2022/07/25 01:16:23;;;;;;;7.75;6.03;;;;;;;;;;4999370;28;20034;-74
2022/07/25 01:18:49;;;;;;;7.22;5.63;;;;;;;;;;5006891;28;20026;-72
2022/07/25 01:21:14;;;;;;;7.78;5.65;;;;;;;;;;4996865;28;20127;-75
2022/07/25 01:23:40;;;;;;;9.27;5.82;;;;;;;;;;5008077;28;20022;-73
2022/07/25 01:26:05;;;;;;;9.15;5.93;;;;;;;;;;5007537;28;20441;-75
2022/07/25 01:28:30;;;;;;;8.70;5.47;;;;;;;;;;5009634;28;20037;-75
2022/07/25 01:30:56;;;;;;;7.63;4.97;;;;;;;;;;5004093;28;20021;-74
2022/07/25 01:33:21;;;;;;;7.57;5.30;;;;;;;;;;5007131;28;20030;-74
2022/07/25 01:35:48;;;;;;;7.22;5.10;;;;;;;;;;5009846;28;20045;-73
2022/07/25 01:38:14;;;;;;;10.30;5.75;;;;;;;;;;5007345;28;20034;-74
2022/07/25 01:40:40;;;;;;;8.13;5.65;;;;;;;;;;5006008;28;20095;-75
2022/07/25 01:43:06;;;;;;;7.70;5.78;;;;;;;;;;5007756;28;20029;-74
2022/07/25 01:45:31;;;;;;;8.32;5.30;;;;;;;;;;5008785;28;20041;-75
2022/07/25 01:47:57;;;;;;;6.45;5.38;;;;;;;;;;5004289;28;20108;-73
2022/07/25 01:50:23;;;;;;;8.32;5.78;;;;;;;;;;5005321;28;20036;-74
2022/07/25 01:52:48;;;;;;;7.38;5.60;;;;;;;;;;5004105;28;20022;-73
2022/07/25 01:55:14;;;;;;;7.15;5.53;;;;;;;;;;5008342;28;20084;-73
2022/07/25 01:57:40;;;;;;;9.18;5.85;;;;;;;;;;5006049;28;20033;-75
2022/07/25 02:00:10;;;;;;;7.18;5.57;;;;;;;;;;5004290;28;20033;-75
2022/07/25 02:02:35;;;;;;;6.72;5.40;;;;;;;;;;5005687;28;20022;-73
2022/07/25 02:05:01;;;;;;;7.30;5.55;;;;;;;;;;5008673;28;20041;-72
2022/07/25 02:07:26;;;;;;;7.43;5.35;;;;;;;;;;5004768;28;20478;-73
2022/07/25 02:09:52;;;;;;;11.45;5.90;;;;;;;;;;5006572;28;20344;-73
2022/07/25 02:12:17;;;;;;;6.57;5.50;;;;;;;;;;5004659;28;20041;-74
2022/07/25 02:14:43;;;;;;;8.02;5.60;;;;;;;;;;5010038;28;20034;-75
2022/07/25 02:17:08;;;;;;;7.32;5.65;;;;;;;;;;5003079;28;20478;-75
2022/07/25 02:19:34;;;;;;;7.80;6.20;;;;;;;;;;5007335;28;20021;-75
2022/07/25 02:22:00;;;;;;;7.43;5.80;;;;;;;;;;5007806;28;20034;-73
2022/07/25 02:24:25;;;;;;;8.05;5.95;;;;;;;;;;5005875;28;20505;-74
2022/07/25 02:26:51;;;;;;;6.80;5.25;;;;;;;;;;5006317;28;20373;-75
2022/07/25 02:29:16;;;;;;;8.57;6.47;;;;;;;;;;5003839;28;20083;-75
2022/07/25 02:31:41;;;;;;;10.70;5.63;;;;;;;;;;5005333;28;20030;-74
2022/07/25 02:34:07;;;;;;;7.97;5.47;;;;;;;;;;5005973;28;20530;-74
2022/07/25 02:36:32;;;;;;;7.45;5.45;;;;;;;;;;5007932;28;20041;-74
2022/07/25 02:38:58;;;;;;;8.30;5.35;;;;;;;;;;5008516;28;20049;-75
2022/07/25 02:41:23;;;;;;;7.43;5.70;;;;;;;;;;5011319;28;20466;-74
2022/07/25 02:43:49;;;;;;;8.60;5.70;;;;;;;;;;5004718;28;20037;-72
2022/07/25 02:46:14;;;;;;;8.73;5.68;;;;;;;;;;5005062;28;20028;-74
2022/07/25 02:48:39;;;;;;;6.75;5.43;;;;;;;;;;5004989;28;20038;-74
2022/07/25 02:51:05;;;;;;;8.05;5.80;;;;;;;;;;5004311;28;20490;-74
2022/07/25 02:53:30;;;;;;;8.23;5.50;;;;;;;;;;5005449;28;20081;-74
2022/07/25 02:55:56;;;;;;;7.40;5.72;;;;;;;;;;5009627;28;20488;-74
2022/07/25 02:58:21;;;;;;;9.27;7.03;;;;;;;;;;5005404;28;20103;-73
2022/07/25 03:00:46;;;;;;;9.15;6.68;;;;;;;;;;5005855;28;20032;-73
2022/07/25 03:03:12;;;;;;;8.27;5.88;;;;;;;;;;5006345;28;20092;-74
2022/07/25 03:05:37;;;;;;;7.65;6.32;;;;;;;;;;5007566;28;20119;-74
2022/07/25 03:08:03;;;;;;;9.38;7.00;;;;;;;;;;5009905;28;20022;-74
2022/07/25 03:10:29;;;;;;;8.10;6.55;;;;;;;;;;5007778;28;20433;-72
2022/07/25 03:12:54;;;;;;;7.38;5.70;;;;;;;;;;5008451;28;20116;-73
2022/07/25 03:15:19;;;;;;;10.02;6.20;;;;;;;;;;5003253;28;20034;-74
2022/07/25 03:17:45;;;;;;;9.93;6.40;;;;;;;;;;5004711;28;20453;-74
2022/07/25 03:20:10;;;;;;;8.50;6.13;;;;;;;;;;5002669;28;20022;-75
2022/07/25 03:22:36;;;;;;;8.65;6.55;;;;;;;;;;5006156;28;20079;-75
2022/07/25 03:25:02;;;;;;;9.52;6.45;;;;;;;;;;5002967;28;20048;-74
2022/07/25 03:27:28;;;;;;;9.02;6.03;;;;;;;;;;5007011;28;20037;-74
2022/07/25 03:29:53;;;;;;;8.35;6.05;;;;;;;;;;5006022;28;20034;-74
2022/07/25 03:32:19;;;;;;;7.70;5.70;;;;;;;;;;5006847;28;20483;-74
2022/07/25 03:34:44;;;;;;;9.25;6.00;;;;;;;;;;5005753;28;20029;-72
2022/07/25 03:37:09;;;;;;;7.88;6.47;;;;;;;;;;5006814;28;20049;-74
2022/07/25 03:39:35;;;;;;;8.93;6.22;;;;;;;;;;5004452;28;20466;-74
2022/07/25 03:42:00;;;;;;;11.20;6.57;;;;;;;;;;5005987;28;20052;-74
2022/07/25 03:44:26;;;;;;;7.05;6.00;;;;;;;;;;5005223;28;20025;-75
2022/07/25 03:46:51;;;;;;;7.05;5.22;;;;;;;;;;5008055;28;20034;-73
2022/07/25 03:49:17;;;;;;;7.45;5.72;;;;;;;;;;5005819;28;20030;-74
2022/07/25 03:51:42;;;;;;;8.35;6.07;;;;;;;;;;5004162;28;20118;-74
2022/07/25 03:54:12;;;;;;;7.93;5.53;;;;;;;;;;5000417;28;20030;-74
2022/07/25 03:56:48;;;;;;;7.85;5.80;;;;;;;;;;5005738;28;20047;-74
2022/07/25 03:59:16;;;;;;;9.65;5.75;;;;;;;;;;5010093;28;20493;-74
2022/07/25 04:01:43;;;;;;;8.98;5.90;;;;;;;;;;5007298;28;20104;-72
2022/07/25 04:04:09;;;;;;;7.88;5.82;;;;;;;;;;5021489;28;20029;-73
2022/07/25 04:06:35;;;;;;;8.57;6.25;;;;;;;;;;5007399;28;20096;-74
2022/07/25 04:09:00;;;;;;;7.32;5.85;;;;;;;;;;5011910;28;20030;-74
2022/07/25 04:11:28;;;;;;;7.40;5.72;;;;;;;;;;5009598;28;20026;-74
2022/07/25 04:13:54;;;;;;;6.38;5.38;;;;;;;;;;5011123;28;20048;-74
2022/07/25 04:16:19;;;;;;;8.60;5.97;;;;;;;;;;5004584;28;20026;-74
2022/07/25 04:18:45;;;;;;;6.20;5.18;;;;;;;;;;5004089;28;20029;-75
2022/07/25 04:21:10;;;;;;;8.38;5.38;;;;;;;;;;5006069;28;20034;-74
2022/07/25 04:23:36;;;;;;;8.20;5.28;;;;;;;;;;5012409;28;20026;-74
2022/07/25 04:26:01;;;;;;;8.93;5.97;;;;;;;;;;5004626;28;20065;-75
2022/07/25 04:28:27;;;;;;;7.45;5.50;;;;;;;;;;5009266;28;20037;-73
2022/07/25 04:30:52;;;;;;;6.63;5.30;;;;;;;;;;5008782;28;20508;-75
2022/07/25 04:33:19;;;;;;;7.70;5.47;;;;;;;;;;5007532;28;20054;-74
2022/07/25 04:35:44;;;;;;;6.43;5.18;;;;;;;;;;5005763;28;20057;-74
2022/07/25 04:38:10;;;;;;;7.30;5.32;;;;;;;;;;5011301;28;20037;-74
2022/07/25 04:40:36;;;;;;;7.88;5.15;;;;;;;;;;5008054;28;20061;-75
2022/07/25 04:43:02;;;;;;;6.93;4.80;;;;;;;;;;5002582;28;20459;-74
2022/07/25 04:45:27;;;;;;;6.20;5.28;;;;;;;;;;5003092;28;20037;-74
2022/07/25 04:47:53;;;;;;;6.13;4.70;;;;;;;;;;5005469;28;20494;-73
2022/07/25 04:50:19;;;;;;;7.90;4.72;;;;;;;;;;5007585;28;20052;-74
2022/07/25 04:52:44;;;;;;;7.28;5.38;;;;;;;;;;5003449;28;20060;-74
2022/07/25 04:55:10;;;;;;;8.38;5.10;;;;;;;;;;5006611;28;20033;-75
2022/07/25 04:57:35;;;;;;;6.88;5.20;;;;;;;;;;5003684;28;20045;-74
2022/07/25 05:00:03;;;;;;;6.18;4.72;;;;;;;;;;5007889;28;20390;-74
2022/07/25 05:02:29;;;;;;;6.10;4.90;;;;;;;;;;5010429;28;20030;-73
2022/07/25 05:04:54;;;;;;;7.13;5.15;;;;;;;;;;5007462;28;21437;-74
2022/07/25 05:07:20;;;;;;;6.50;5.10;;;;;;;;;;5004980;28;20022;-74
2022/07/25 05:09:45;;;;;;;8.55;5.75;;;;;;;;;;5009081;28;20425;-74
2022/07/25 05:12:10;;;;;;;7.47;4.97;;;;;;;;;;5009685;28;20080;-73
2022/07/25 05:14:37;;;;;;;5.97;5.03;;;;;;;;;;5008179;28;20120;-74
2022/07/25 05:17:02;;;;;;;5.82;4.93;;;;;;;;;;5008277;28;20490;-73
2022/07/25 05:19:28;;;;;;;7.32;4.78;;;;;;;;;;5007983;28;20026;-74
2022/07/25 05:21:53;;;;;;;7.03;5.32;;;;;;;;;;5005783;28;20037;-75
2022/07/25 05:24:18;;;;;;;9.35;5.18;;;;;;;;;;5005762;28;20478;-74
2022/07/25 05:26:44;;;;;;;6.90;5.07;;;;;;;;;;5005062;28;20095;-73
2022/07/25 05:29:09;;;;;;;7.50;4.47;;;;;;;;;;5004062;28;20128;-74
2022/07/25 05:31:36;;;;;;;7.35;5.20;;;;;;;;;;5005757;28;20037;-74
2022/07/25 05:34:02;;;;;;;6.50;5.13;;;;;;;;;;5004842;28;20030;-74
2022/07/25 05:36:27;;;;;;;7.18;5.20;;;;;;;;;;5009570;28;20453;-75
2022/07/25 05:38:53;;;;;;;7.72;5.07;;;;;;;;;;5000691;28;20030;-71
2022/07/25 05:41:18;;;;;;;6.30;4.97;;;;;;;;;;5006536;28;20037;-74
2022/07/25 05:43:45;;;;;;;5.93;5.20;;;;;;;;;;5002902;28;20026;-72
2022/07/25 05:46:11;;;;;;;7.53;5.20;;;;;;;;;;5007541;28;20100;-75
2022/07/25 05:48:36;;;;;;;6.53;5.10;;;;;;;;;;5007615;28;20128;-75
2022/07/25 05:51:02;;;;;;;7.05;5.13;;;;;;;;;;5005788;28;20040;-74
2022/07/25 05:53:27;;;;;;;9.77;5.72;;;;;;;;;;5003144;28;20029;-74
2022/07/25 05:55:53;;;;;;;7.03;5.40;;;;;;;;;;5004417;28;20442;-74
2022/07/25 05:58:18;;;;;;;7.57;5.03;;;;;;;;;;5007821;28;20037;-75
2022/07/25 06:00:43;;;;;;;9.23;5.95;;;;;;;;;;5003206;28;20036;-74
2022/07/25 06:03:09;;;;;;;7.40;5.30;;;;;;;;;;5003839;28;20705;-74
2022/07/25 06:05:34;;;;;;;8.52;5.88;;;;;;;;;;5004413;28;20030;-72
2022/07/25 06:08:00;;;;;;;6.80;5.30;;;;;;;;;;5005680;28;20474;-73
2022/07/25 06:10:25;;;;;;;7.70;5.32;;;;;;;;;;5003367;28;20034;-73
2022/07/25 06:12:51;;;;;;;7.93;5.80;;;;;;;;;;5003813;28;21142;-74
2022/07/25 06:15:16;;;;;;;8.75;6.32;;;;;;;;;;5001070;28;20038;-75
2022/07/25 06:17:42;;;;;;;12.18;6.40;;;;;;;;;;5002226;28;20033;-74
2022/07/25 06:20:08;;;;;;;6.80;5.60;;;;;;;;;;4999127;28;20059;-74
2022/07/25 06:22:33;;;;;;;6.57;4.95;;;;;;;;;;5000969;28;20029;-74
2022/07/25 06:25:01;;;;;;;6.80;4.80;;;;;;;;;;5003077;28;20022;-74
2022/07/25 06:27:27;;;;;;;13.73;5.53;;;;;;;;;;5002895;28;20037;-74
2022/07/25 06:29:52;;;;;;;10.90;5.10;;;;;;;;;;4998616;28;20706;-74
2022/07/25 06:32:17;;;;;;;7.80;4.80;;;;;;;;;;4996137;28;20034;-74
2022/07/25 06:34:43;;;;;;;7.25;4.60;;;;;;;;;;4996225;28;20025;-73
2022/07/25 06:37:08;;;;;;;7.10;4.43;;;;;;;;;;5000767;28;20521;-75
2022/07/25 06:39:33;;;;;;;5.60;4.53;;;;;;;;;;4997102;28;20496;-74
2022/07/25 06:41:59;;;;;;;6.03;4.55;;;;;;;;;;4999421;28;20026;-76
2022/07/25 06:44:25;;;;;;;6.07;4.30;;;;;;;;;;5001730;28;20057;-79
2022/07/25 06:46:50;;;;;;;6.82;4.35;;;;;;;;;;5000289;28;20040;-75
2022/07/25 06:49:16;;;;;;;6.50;3.97;;;;;;;;;;5001659;28;20084;-76
2022/07/25 06:51:42;;;;;;;8.68;3.75;;;;;;;;;;5001578;28;20556;-76
2022/07/25 06:54:07;;;;;;;6.18;3.60;;;;;;;;;;5003459;28;20061;-74
2022/07/25 06:56:33;;;;;;;4.30;3.20;;;;;;;;;;5000549;28;20030;-75
2022/07/25 06:58:59;;;;;;;6.15;3.45;;;;;;;;;;5005668;28;20474;-78
2022/07/25 07:01:24;;;;;;;6.03;3.20;;;;;;;;;;5002591;28;20549;-74
2022/07/25 07:03:49;;;;;;;3.30;2.55;;;;;;;;;;5008544;28;20482;-80
2022/07/25 07:06:15;;;;;;;4.53;2.72;;;;;;;;;;5005880;28;20119;-76
2022/07/25 07:08:40;;;;;;;4.68;2.80;;;;;;;;;;5005778;28;20037;-75
2022/07/25 07:11:06;;;;;;;4.18;2.50;;;;;;;;;;5005386;28;20033;-73
2022/07/25 07:13:32;;;;;;;5.90;2.58;;;;;;;;;;5005536;28;20040;-76
2022/07/25 07:15:57;;;;;;;5.28;2.78;;;;;;;;;;5005356;28;20038;-74
2022/07/25 07:18:23;;;;;;;4.85;2.38;;;;;;;;;;5002772;28;20029;-79
2022/07/25 07:20:48;;;;;;;4.97;2.38;;;;;;;;;;4997393;28;20552;-74
2022/07/25 07:23:14;;;;;;;5.75;2.83;;;;;;;;;;5006715;28;20025;-76
2022/07/25 07:25:39;;;;;;;4.88;2.47;;;;;;;;;;5008041;28;20048;-75
2022/07/25 07:28:05;;;;;;;3.58;1.80;;;;;;;;;;5010989;28;20037;-75
2022/07/25 07:30:31;;;;;;;3.78;1.55;;;;;;;;;;4999899;28;20036;-74
2022/07/25 07:32:57;;;;;;;5.05;1.63;;;;;;;;;;5002201;28;20030;-75
2022/07/25 07:35:24;;;;;;;3.55;1.52;;;;;;;;;;4997329;28;20041;-75
2022/07/25 07:37:51;;;;;;;3.95;1.50;;;;;;;;;;5005898;28;20437;-73
2022/07/25 07:40:16;;;;;;;3.35;1.20;;;;;;;;;;5003227;28;20026;-76
2022/07/25 07:42:47;;;;;;;3.20;1.33;;;;;;;;;;5007294;28;20536;-79
2022/07/25 07:45:22;;;;;;;3.47;1.30;;;;;;;;;;5000950;28;20046;-74
2022/07/25 07:47:49;;;;;;;4.10;1.20;;;;;;;;;;5005936;28;20041;-75
2022/07/25 07:50:16;;;;;;;2.33;1.10;;;;;;;;;;5007844;28;20080;-76
2022/07/25 07:52:42;;;;;;;2.80;1.08;;;;;;;;;;5006196;28;20026;-73
2022/07/25 07:57:53;;;;;;;4.00;1.05;;;;;;;;;;5006063;28;20107;-80
2022/07/25 08:00:19;;;;;;;3.17;1.08;;;;;;;;;;5003582;28;20018;-75
2022/07/25 08:02:47;;;;;;;1.60;0.75;;;;;;;;;;5009107;28;20477;-75
2022/07/25 08:05:22;;;;;;;2.70;0.90;;;;;;;;;;5010522;28;20037;-73
2022/07/25 08:07:50;;;;;;;2.67;0.82;;;;;;;;;;5007515;28;20056;-73
2022/07/25 08:10:22;;;;;;;2.63;0.90;;;;;;;;;;5008181;28;20093;-73
2022/07/25 08:12:48;;;;;;;2.78;0.90;;;;;;;;;;5007717;28;20546;-75
2022/07/25 08:15:14;;;;;;;2.63;0.88;;;;;;;;;;5007838;28;20037;-73
2022/07/25 08:17:40;;;;;;;4.20;0.75;;;;;;;;;;5011915;28;20036;-76
2022/07/25 08:20:07;;;;;;;2.97;0.77;;;;;;;;;;5010971;28;20034;-74
2022/07/25 08:22:40;;;;;;;1.88;0.80;;;;;;;;;;5009991;28;20037;-75
2022/07/25 08:25:08;;;;;;;1.92;0.90;;;;;;;;;;5007461;28;20037;-74
2022/07/25 08:27:34;;;;;;;2.90;0.80;;;;;;;;;;5006504;28;20069;-75
2022/07/25 08:30:00;;;;;;;1.40;0.70;;;;;;;;;;5008414;28;20032;-75
2022/07/25 08:32:27;;;;;;;3.05;0.80;;;;;;;;;;5005553;28;20025;-75
2022/07/25 08:34:53;;;;;;;3.78;1.00;;;;;;;;;;5011306;28;20099;-73
2022/07/25 08:37:18;;;;;;;1.75;0.65;;;;;;;;;;5008138;28;20057;-76
2022/07/25 08:39:43;;;;;;;3.78;1.05;;;;;;;;;;5009607;28;20037;-73
2022/07/25 08:42:09;;;;;;;2.17;0.80;;;;;;;;;;5007902;28;20053;-75
2022/07/25 08:44:39;;;;;;;4.22;1.10;;;;;;;;;;5011032;28;20116;-75
2022/07/25 08:47:06;;;;;;;2.95;0.90;;;;;;;;;;5009992;28;20025;-78
2022/07/25 08:49:34;;;;;;;2.05;1.00;;;;;;;;;;5010571;28;20033;-80
2022/07/25 08:52:01;;;;;;;2.70;1.13;;;;;;;;;;5013427;28;20052;-75
2022/07/25 08:54:26;;;;;;;2.75;0.88;;;;;;;;;;5016474;28;20049;-75
2022/07/25 08:56:52;;;;;;;2.08;0.90;;;;;;;;;;5012206;28;20034;-73
2022/07/25 08:59:17;;;;;;;2.55;0.80;;;;;;;;;;5015433;28;20054;-81
2022/07/25 09:01:43;;;;;;;1.42;0.70;;;;;;;;;;5010616;28;20033;-80
2022/07/25 09:04:08;;;;;;;6.03;0.90;;;;;;;;;;5012027;28;20033;-73
2022/07/25 09:06:34;;;;;;;3.17;0.80;;;;;;;;;;5011354;28;20029;-81
2022/07/25 09:09:03;;;;;;;3.00;1.05;;;;;;;;;;5007107;28;20048;-75
2022/07/25 09:11:34;;;;;;;4.85;1.50;;;;;;;;;;5013566;28;20040;-73
2022/07/25 09:14:11;;;;;;;3.75;1.10;;;;;;;;;;5006707;28;20033;-75
2022/07/25 09:16:42;;;;;;;4.22;1.00;;;;;;;;;;5009684;28;20029;-76
2022/07/25 09:19:19;;;;;;;6.82;1.30;;;;;;;;;;5007861;28;20034;-73
2022/07/25 09:21:57;;;;;;;3.15;1.08;;;;;;;;;;5013561;28;20025;-75
2022/07/25 09:24:23;;;;;;;5.82;1.27;;;;;;;;;;5010093;28;20039;-75
2022/07/25 09:26:51;;;;;;;4.10;1.20;;;;;;;;;;5013745;28;20113;-81
2022/07/25 09:29:25;;;;;;;3.10;1.10;;;;;;;;;;5008082;28;20037;-76
2022/07/25 09:31:52;;;;;;;5.25;1.35;;;;;;;;;;5026321;28;20117;-76
2022/07/25 09:34:41;;;;;;;2.95;1.20;;;;;;;;;;5008228;28;20601;-81
2022/07/25 09:37:09;;;;;;;3.47;1.40;;;;;;;;;;5007553;28;22162;-76
2022/07/25 09:39:45;;;;;;;3.20;1.20;;;;;;;;;;5009229;28;20033;-73
2022/07/25 09:42:15;;;;;;;2.85;1.35;;;;;;;;;;5011896;28;20033;-75
2022/07/25 09:44:40;;;;;;;4.10;1.35;;;;;;;;;;5010529;28;20073;-76
2022/07/25 09:47:13;;;;;;;5.78;1.50;;;;;;;;;;5014053;28;20301;-76
2022/07/25 09:49:42;;;;;;;;;;;;;;;;;;5009008;28;20037;-76
2022/07/25 09:52:11;;;;;;;2.80;1.25;;;;;;;;;;5011695;28;19914;-76
2022/07/25 09:54:38;;;;;;;2.35;1.20;;;;;;;;;;5011267;28;20034;-81
2022/07/25 09:57:03;;;;;;;2.45;1.20;;;;;;;;;;5009345;28;20079;-72
2022/07/25 09:59:29;;;;;;;4.50;1.08;;;;;;;;;;5007844;28;20035;-80
2022/07/25 10:02:08;;;;;;;2.65;1.30;;;;;;;;;;5013395;28;20470;-81
2022/07/25 10:04:43;;;;;;;5.00;1.48;;;;;;;;;;5002631;28;20041;-73
2022/07/25 10:07:11;;;;;;;3.55;1.27;;;;;;;;;;5009968;28;20639;-81
2022/07/25 10:09:53;;;;;;;3.88;1.42;;;;;;;;;;5010986;28;20030;-75
2022/07/25 10:12:21;;;;;;;3.20;1.20;;;;;;;;;;5011430;28;20057;-81
2022/07/25 10:15:11;;;;;;;3.85;1.23;;;;;;;;;;5009430;28;20048;-76
2022/07/25 10:17:39;;;;;;;2.30;0.90;;;;;;;;;;5006280;28;21777;-75
2022/07/25 10:20:06;;;;;;;2.10;0.90;;;;;;;;;;5009819;28;20056;-81
2022/07/25 10:22:40;;;;;;;4.07;1.35;;;;;;;;;;5005593;28;20014;-75
2022/07/25 10:25:17;;;;;;;2.25;1.10;;;;;;;;;;5010492;28;20087;-76
2022/07/25 10:27:47;;;;;;;3.95;1.13;;;;;;;;;;5013615;28;20029;-76
2022/07/25 10:30:19;;;;;;;4.95;1.20;;;;;;;;;;5007902;28;20113;-75
2022/07/25 10:33:12;;;;;;;3.10;1.08;;;;;;;;;;5009547;28;20030;-80
2022/07/25 10:35:38;;;;;;;3.10;1.02;;;;;;;;;;5005804;28;20030;-75
2022/07/25 10:38:04;;;;;;;4.18;1.08;;;;;;;;;;5011909;28;20027;-82
2022/07/25 10:40:39;;;;;;;2.85;1.20;;;;;;;;;;5013694;28;20386;-80
2022/07/25 10:43:04;;;;;;;3.92;1.20;;;;;;;;;;5011013;28;20486;-75
2022/07/25 10:45:37;;;;;;;4.57;1.10;;;;;;;;;;5006367;28;20145;-75
2022/07/25 10:48:11;;;;;;;2.78;1.20;;;;;;;;;;5003742;28;20038;-82
2022/07/25 10:50:55;;;;;;;2.70;1.20;;;;;;;;;;5008192;28;20508;-74
2022/07/25 10:53:31;;;;;;;3.85;1.40;;;;;;;;;;5015662;28;20474;-75
2022/07/25 10:56:09;;;;;;;3.47;1.20;;;;;;;;;;5012706;28;20076;-81
2022/07/25 10:58:54;;;;;;;3.35;1.23;;;;;;;;;;5008810;28;20026;-76
2022/07/25 11:01:20;;;;;;;3.70;1.30;;;;;;;;;;5009650;28;20117;-78
2022/07/25 11:03:46;;;;;;;4.88;1.70;;;;;;;;;;5006898;28;20057;-80
2022/07/25 11:06:13;;;;;;;4.95;1.55;;;;;;;;;;5011750;28;20054;-75
2022/07/25 11:08:40;;;;;;;4.88;1.58;;;;;;;;;;5007903;28;20034;-76
2022/07/25 11:11:06;;;;;;;2.95;1.48;;;;;;;;;;5008111;28;20029;-75
2022/07/25 11:13:36;;;;;;;5.95;1.70;;;;;;;;;;5007529;28;20029;-75
2022/07/25 11:16:02;;;;;;;5.50;1.52;;;;;;;;;;5005755;28;20566;-73
2022/07/25 11:18:33;;;;;;;4.95;1.70;;;;;;;;;;5005840;28;20116;-74
2022/07/25 11:21:00;;;;;;;3.60;1.48;;;;;;;;;;5009702;28;20041;-74
2022/07/25 11:23:26;;;;;;;4.68;1.83;;;;;;;;;;5008676;28;20104;-75
2022/07/25 11:25:51;;;;;;;4.75;1.48;;;;;;;;;;5005531;28;20124;-72
2022/07/25 11:28:17;;;;;;;3.92;1.55;;;;;;;;;;5012024;28;20038;-75
2022/07/25 11:30:42;;;;;;;3.50;1.55;;;;;;;;;;5008298;28;20030;-74
2022/07/25 11:33:07;;;;;;;5.18;1.65;;;;;;;;;;5005466;28;20065;-74
2022/07/25 11:35:33;;;;;;;4.57;1.70;;;;;;;;;;5007201;28;20117;-72
2022/07/25 11:38:01;;;;;;;5.47;1.80;;;;;;;;;;5008112;28;20140;-74
2022/07/25 11:40:26;;;;;;;3.78;1.50;;;;;;;;;;5006562;28;20026;-74
2022/07/25 11:42:54;;;;;;;6.18;1.70;;;;;;;;;;5007707;28;20385;-74
2022/07/25 11:45:25;;;;;;;5.03;1.73;;;;;;;;;;5006120;28;20056;-75
2022/07/25 11:48:07;;;;;;;5.13;1.88;;;;;;;;;;5010624;28;20051;-74
2022/07/25 11:50:35;;;;;;;4.75;1.80;;;;;;;;;;5009148;28;20037;-75
2022/07/25 11:53:05;;;;;;;4.47;1.60;;;;;;;;;;5007144;28;20040;-74
2022/07/25 11:55:35;;;;;;;5.47;1.60;;;;;;;;;;5012768;28;20022;-74
2022/07/25 11:58:02;;;;;;;4.97;1.70;;;;;;;;;;5010331;28;20045;-74
2022/07/25 12:00:28;;;;;;;4.35;1.65;;;;;;;;;;5008899;28;20033;-74
2022/07/25 12:03:04;;;;;;;6.13;1.70;;;;;;;;;;5006672;28;20100;-75
2022/07/25 12:05:31;;;;;;;3.92;1.85;;;;;;;;;;5008570;28;20022;-72
2022/07/25 12:07:59;;;;;;;5.40;2.17;;;;;;;;;;5008020;28;20406;-73
2022/07/25 12:10:33;;;;;;;5.68;1.90;;;;;;;;;;5004916;28;20514;-74
2022/07/25 12:13:03;;;;;;;4.22;1.80;;;;;;;;;;5009403;28;20034;-74
2022/07/25 12:15:36;;;;;;;3.78;1.80;;;;;;;;;;5009504;28;20104;-73
2022/07/25 12:18:02;;;;;;;5.03;1.90;;;;;;;;;;5011482;28;20418;-73
2022/07/25 12:20:33;;;;;;;5.32;1.95;;;;;;;;;;5025438;28;20064;-72
2022/07/25 12:23:03;;;;;;;4.53;2.17;;;;;;;;;;5012731;28;20083;-75
2022/07/25 12:25:30;;;;;;;6.55;2.80;;;;;;;;;;5012217;28;20026;-74
2022/07/25 12:27:57;;;;;;;6.40;2.15;;;;;;;;;;5012006;28;20018;-74
2022/07/25 12:30:24;;;;;;;4.43;1.95;;;;;;;;;;5030327;28;20525;-72
2022/07/25 12:32:50;;;;;;;4.85;2.13;;;;;;;;;;5014204;28;20176;-74
2022/07/25 12:35:15;;;;;;;6.28;2.28;;;;;;;;;;5012644;28;20057;-75
2022/07/25 12:37:41;;;;;;;6.57;2.38;;;;;;;;;;5012669;28;20073;-74
2022/07/25 12:40:08;;;;;;;7.18;2.30;;;;;;;;;;5010072;28;20022;-72
2022/07/25 12:42:34;;;;;;;9.02;2.50;;;;;;;;;;5008526;28;20402;-75
2022/07/25 12:44:59;;;;;;;4.95;2.10;;;;;;;;;;5005331;28;20037;-74
2022/07/25 12:47:26;;;;;;;5.20;2.00;;;;;;;;;;5010818;28;20526;-75
2022/07/25 12:49:51;;;;;;;4.80;2.20;;;;;;;;;;5011482;28;20026;-75
2022/07/25 12:52:17;;;;;;;7.22;2.17;;;;;;;;;;5011896;28;20029;-74
2022/07/25 12:54:43;;;;;;;4.78;2.25;;;;;;;;;;5008949;28;20026;-72
2022/07/25 12:57:13;;;;;;;3.88;2.00;;;;;;;;;;5011989;28;20061;-72
2022/07/25 12:59:38;;;;;;;6.28;1.90;;;;;;;;;;5011232;28;20064;-73
2022/07/25 13:02:05;;;;;;;7.85;2.10;;;;;;;;;;5010209;28;20054;-72
2022/07/25 13:04:31;;;;;;;5.40;1.67;;;;;;;;;;5004982;28;20053;-75
2022/07/25 13:06:57;;;;;;;4.20;1.83;;;;;;;;;;5003415;28;20064;-74
2022/07/25 13:09:24;;;;;;;5.20;2.20;;;;;;;;;;5006303;28;20608;-74
2022/07/25 13:11:50;;;;;;;6.65;2.10;;;;;;;;;;5009269;28;20030;-73
2022/07/25 13:14:16;;;;;;;4.82;2.00;;;;;;;;;;5009190;28;20060;-74
2022/07/25 13:16:42;;;;;;;5.45;2.10;;;;;;;;;;5011512;28;20431;-74
2022/07/25 13:19:08;;;;;;;5.95;2.30;;;;;;;;;;5009663;28;20040;-74
2022/07/25 13:21:33;;;;;;;3.92;1.73;;;;;;;;;;5007524;28;20482;-73
2022/07/25 13:23:59;;;;;;;6.28;1.75;;;;;;;;;;5007742;28;20026;-74
2022/07/25 13:26:24;;;;;;;9.00;1.70;;;;;;;;;;5011003;28;20037;-72
2022/07/25 13:28:53;;;;;;;5.88;2.05;;;;;;;;;;5012936;28;20037;-74
2022/07/25 13:31:20;;;;;;;5.88;2.00;;;;;;;;;;5002492;28;20034;-73
2022/07/25 13:33:46;;;;;;;4.70;2.08;;;;;;;;;;5009236;28;20029;-72
2022/07/25 13:36:12;;;;;;;5.35;2.00;;;;;;;;;;5011171;28;20061;-74
2022/07/25 13:38:40;;;;;;;5.65;1.90;;;;;;;;;;5023809;28;20080;-73
2022/07/25 13:41:08;;;;;;;4.97;1.50;;;;;;;;;;5010606;28;20360;-73
2022/07/25 13:43:34;;;;;;;6.20;1.80;;;;;;;;;;5008282;28;20030;-73
2022/07/25 13:46:00;;;;;;;3.85;1.60;;;;;;;;;;5008870;28;20500;-72
2022/07/25 13:48:25;;;;;;;6.32;2.30;;;;;;;;;;5008687;28;20612;-75
2022/07/25 13:50:50;;;;;;;4.93;1.63;;;;;;;;;;5008271;28;20422;-75
2022/07/25 13:53:16;;;;;;;3.65;1.60;;;;;;;;;;5012728;28;20041;-73
2022/07/25 13:55:42;;;;;;;4.60;1.70;;;;;;;;;;5012349;28;20030;-74
2022/07/25 13:58:07;;;;;;;4.45;1.58;;;;;;;;;;5013126;28;20470;-74
2022/07/25 14:00:33;;;;;;;5.75;1.70;;;;;;;;;;5011021;28;20101;-73
2022/07/25 14:02:58;;;;;;;3.47;1.50;;;;;;;;;;5011076;28;20025;-72
2022/07/25 14:05:24;;;;;;;4.05;1.50;;;;;;;;;;5010180;28;20394;-74
2022/07/25 14:07:49;;;;;;;3.65;1.50;;;;;;;;;;5013275;28;20029;-75
2022/07/25 14:10:15;;;;;;;6.85;1.30;;;;;;;;;;5011527;28;20498;-75
2022/07/25 14:12:40;;;;;;;6.75;1.50;;;;;;;;;;5010720;28;20033;-75
2022/07/25 14:15:06;;;;;;;7.38;1.83;;;;;;;;;;5012094;28;20038;-74
2022/07/25 14:17:32;;;;;;;5.30;1.63;;;;;;;;;;5010343;28;20029;-74
2022/07/25 14:19:58;;;;;;;5.22;1.60;;;;;;;;;;5011887;28;20105;-75
2022/07/25 14:22:24;;;;;;;3.92;1.50;;;;;;;;;;5009597;28;20133;-72
2022/07/25 14:24:49;;;;;;;7.85;1.67;;;;;;;;;;5009059;28;20581;-74
2022/07/25 14:27:15;;;;;;;6.82;1.45;;;;;;;;;;5012932;28;20021;-73
2022/07/25 14:29:40;;;;;;;4.65;1.70;;;;;;;;;;5011334;28;20032;-74
2022/07/25 14:32:07;;;;;;;8.98;1.67;;;;;;;;;;5007397;28;20116;-74
2022/07/25 14:34:33;;;;;;;5.22;1.60;;;;;;;;;;5009968;28;20088;-73
2022/07/25 14:37:00;;;;;;;6.97;1.90;;;;;;;;;;5007802;28;20129;-74
2022/07/25 14:39:25;;;;;;;5.82;1.45;;;;;;;;;;5011053;28;20033;-73
2022/07/25 14:41:51;;;;;;;5.88;1.40;;;;;;;;;;5008550;28;20116;-74
2022/07/25 14:44:16;;;;;;;4.97;1.23;;;;;;;;;;5009206;28;20026;-73